sensor_id;sensor_type;location;lat;lon;timestamp;pressure;altitude;pressure_sealevel;temperature
72278;BMP280;61204;49.980;8.358;2022-11-15T00:00:54;100323.25;;;7.35
72278;BMP280;61204;49.980;8.358;2022-11-15T00:03:23;100308.72;;;7.32
72278;BMP280;61204;49.980;8.358;2022-11-15T00:05:52;100306.56;;;7.31
72278;BMP280;61204;49.980;8.358;2022-11-15T00:08:17;100320.03;;;7.29
72278;BMP280;61204;49.980;8.358;2022-11-15T00:10:54;100329.50;;;7.28
72278;BMP280;61204;49.980;8.358;2022-11-15T00:13:25;100324.56;;;7.26
72278;BMP280;61204;49.980;8.358;2022-11-15T00:15:51;100322.19;;;7.30
72278;BMP280;61204;49.980;8.358;2022-11-15T00:18:17;100306.72;;;7.33
72278;BMP280;61204;49.980;8.358;2022-11-15T00:20:44;100312.91;;;7.33
72278;BMP280;61204;49.980;8.358;2022-11-15T00:23:10;100304.00;;;7.33
72278;BMP280;61204;49.980;8.358;2022-11-15T00:25:36;100309.63;;;7.35
72278;BMP280;61204;49.980;8.358;2022-11-15T00:28:02;100310.47;;;7.37
72278;BMP280;61204;49.980;8.358;2022-11-15T00:30:28;100309.38;;;7.41
72278;BMP280;61204;49.980;8.358;2022-11-15T00:32:54;100307.47;;;7.51
72278;BMP280;61204;49.980;8.358;2022-11-15T00:35:21;100311.09;;;7.53
72278;BMP280;61204;49.980;8.358;2022-11-15T00:37:47;100296.16;;;7.54
72278;BMP280;61204;49.980;8.358;2022-11-15T00:40:13;100296.16;;;7.54
72278;BMP280;61204;49.980;8.358;2022-11-15T00:42:40;100306.34;;;7.54
72278;BMP280;61204;49.980;8.358;2022-11-15T00:45:07;100294.16;;;7.55
72278;BMP280;61204;49.980;8.358;2022-11-15T00:47:33;100291.75;;;7.59
72278;BMP280;61204;49.980;8.358;2022-11-15T00:49:59;100296.41;;;7.66
72278;BMP280;61204;49.980;8.358;2022-11-15T00:52:24;100295.41;;;7.71
72278;BMP280;61204;49.980;8.358;2022-11-15T00:54:50;100294.88;;;7.73
72278;BMP280;61204;49.980;8.358;2022-11-15T00:57:16;100296.00;;;7.70
72278;BMP280;61204;49.980;8.358;2022-11-15T00:59:41;100292.66;;;7.71
72278;BMP280;61204;49.980;8.358;2022-11-15T01:02:07;100279.44;;;7.68
72278;BMP280;61204;49.980;8.358;2022-11-15T01:04:32;100278.59;;;7.65
72278;BMP280;61204;49.980;8.358;2022-11-15T01:06:58;100271.50;;;7.62
72278;BMP280;61204;49.980;8.358;2022-11-15T01:09:24;100280.97;;;7.61
72278;BMP280;61204;49.980;8.358;2022-11-15T01:11:49;100274.25;;;7.62
72278;BMP280;61204;49.980;8.358;2022-11-15T01:14:15;100282.41;;;7.62
72278;BMP280;61204;49.980;8.358;2022-11-15T01:16:40;100282.03;;;7.66
72278;BMP280;61204;49.980;8.358;2022-11-15T01:19:06;100281.84;;;7.63
72278;BMP280;61204;49.980;8.358;2022-11-15T01:21:31;100290.44;;;7.60
72278;BMP280;61204;49.980;8.358;2022-11-15T01:23:57;100287.31;;;7.63
72278;BMP280;61204;49.980;8.358;2022-11-15T01:26:24;100281.69;;;7.61
72278;BMP280;61204;49.980;8.358;2022-11-15T01:28:50;100282.56;;;7.64
72278;BMP280;61204;49.980;8.358;2022-11-15T01:31:19;100283.47;;;7.67
72278;BMP280;61204;49.980;8.358;2022-11-15T01:33:46;100281.31;;;7.65
72278;BMP280;61204;49.980;8.358;2022-11-15T01:36:17;100275.84;;;7.65
72278;BMP280;61204;49.980;8.358;2022-11-15T01:38:46;100266.38;;;7.66
72278;BMP280;61204;49.980;8.358;2022-11-15T01:41:20;100271.97;;;7.68
72278;BMP280;61204;49.980;8.358;2022-11-15T01:43:52;100265.56;;;7.73
72278;BMP280;61204;49.980;8.358;2022-11-15T01:46:35;100265.00;;;7.75
72278;BMP280;61204;49.980;8.358;2022-11-15T01:49:14;100260.25;;;7.75
72278;BMP280;61204;49.980;8.358;2022-11-15T01:51:45;100269.72;;;7.74
72278;BMP280;61204;49.980;8.358;2022-11-15T01:54:15;100265.72;;;7.75
72278;BMP280;61204;49.980;8.358;2022-11-15T01:56:52;100259.72;;;7.77
72278;BMP280;61204;49.980;8.358;2022-11-15T01:59:29;100261.88;;;7.78
72278;BMP280;61204;49.980;8.358;2022-11-15T02:01:55;100253.75;;;7.88
72278;BMP280;61204;49.980;8.358;2022-11-15T02:04:34;100245.72;;;7.90
72278;BMP280;61204;49.980;8.358;2022-11-15T02:07:10;100245.19;;;8.01
72278;BMP280;61204;49.980;8.358;2022-11-15T02:09:39;100233.06;;;8.12
72278;BMP280;61204;49.980;8.358;2022-11-15T02:12:07;100234.22;;;8.18
72278;BMP280;61204;49.980;8.358;2022-11-15T02:14:36;100232.78;;;8.17
72278;BMP280;61204;49.980;8.358;2022-11-15T02:23:31;100233.09;;;8.22
72278;BMP280;61204;49.980;8.358;2022-11-15T02:29:20;100221.50;;;8.31
72278;BMP280;61204;49.980;8.358;2022-11-15T02:32:14;100232.59;;;8.33
72278;BMP280;61204;49.980;8.358;2022-11-15T02:35:25;100224.53;;;8.35
72278;BMP280;61204;49.980;8.358;2022-11-15T02:38:07;100224.41;;;8.33
72278;BMP280;61204;49.980;8.358;2022-11-15T02:41:00;100215.19;;;8.38
72278;BMP280;61204;49.980;8.358;2022-11-15T02:43:43;100209.88;;;8.40
72278;BMP280;61204;49.980;8.358;2022-11-15T02:46:58;100213.06;;;8.46
72278;BMP280;61204;49.980;8.358;2022-11-15T02:50:02;100206.28;;;8.47
72278;BMP280;61204;49.980;8.358;2022-11-15T02:52:34;100203.16;;;8.51
72278;BMP280;61204;49.980;8.358;2022-11-15T02:55:01;100204.44;;;8.50
72278;BMP280;61204;49.980;8.358;2022-11-15T02:57:52;100196.97;;;8.50
72278;BMP280;61204;49.980;8.358;2022-11-15T03:07:39;100202.09;;;8.36
72278;BMP280;61204;49.980;8.358;2022-11-15T03:10:21;100201.66;;;8.30
72278;BMP280;61204;49.980;8.358;2022-11-15T03:18:55;100206.91;;;8.18
72278;BMP280;61204;49.980;8.358;2022-11-15T03:21:31;100206.63;;;8.14
72278;BMP280;61204;49.980;8.358;2022-11-15T03:24:03;100197.84;;;8.16
72278;BMP280;61204;49.980;8.358;2022-11-15T03:26:34;100195.03;;;8.24
72278;BMP280;61204;49.980;8.358;2022-11-15T03:29:07;100198.22;;;8.30
72278;BMP280;61204;49.980;8.358;2022-11-15T03:31:46;100198.41;;;8.41
72278;BMP280;61204;49.980;8.358;2022-11-15T03:34:35;100198.25;;;8.49
72278;BMP280;61204;49.980;8.358;2022-11-15T03:37:16;100196.56;;;8.54
72278;BMP280;61204;49.980;8.358;2022-11-15T03:39:47;100197.28;;;8.54
72278;BMP280;61204;49.980;8.358;2022-11-15T03:42:34;100192.97;;;8.61
72278;BMP280;61204;49.980;8.358;2022-11-15T03:45:17;100195.13;;;8.62
72278;BMP280;61204;49.980;8.358;2022-11-15T03:48:01;100184.94;;;8.63
72278;BMP280;61204;49.980;8.358;2022-11-15T03:50:38;100190.25;;;8.61
72278;BMP280;61204;49.980;8.358;2022-11-15T03:53:06;100196.28;;;8.59
72278;BMP280;61204;49.980;8.358;2022-11-15T03:55:33;100192.09;;;8.58
72278;BMP280;61204;49.980;8.358;2022-11-15T03:58:00;100194.28;;;8.60
72278;BMP280;61204;49.980;8.358;2022-11-15T04:00:27;100201.19;;;8.61
72278;BMP280;61204;49.980;8.358;2022-11-15T04:02:53;100196.28;;;8.59
72278;BMP280;61204;49.980;8.358;2022-11-15T04:05:18;100205.91;;;8.60
72278;BMP280;61204;49.980;8.358;2022-11-15T04:07:44;100207.34;;;8.61
72278;BMP280;61204;49.980;8.358;2022-11-15T04:10:10;100208.06;;;8.62
72278;BMP280;61204;49.980;8.358;2022-11-15T04:12:40;100202.47;;;8.69
72278;BMP280;61204;49.980;8.358;2022-11-15T04:15:11;100204.97;;;8.75
72278;BMP280;61204;49.980;8.358;2022-11-15T04:17:43;100196.88;;;8.77
72278;BMP280;61204;49.980;8.358;2022-11-15T04:20:19;100195.91;;;8.82
72278;BMP280;61204;49.980;8.358;2022-11-15T04:23:26;100187.72;;;8.82
72278;BMP280;61204;49.980;8.358;2022-11-15T04:26:11;100184.56;;;8.86
72278;BMP280;61204;49.980;8.358;2022-11-15T04:28:42;100188.28;;;8.90
72278;BMP280;61204;49.980;8.358;2022-11-15T04:31:27;100186.84;;;8.99
72278;BMP280;61204;49.980;8.358;2022-11-15T04:33:53;100183.28;;;9.06
72278;BMP280;61204;49.980;8.358;2022-11-15T04:36:20;100187.31;;;9.05
72278;BMP280;61204;49.980;8.358;2022-11-15T04:39:05;100182.97;;;9.02
72278;BMP280;61204;49.980;8.358;2022-11-15T04:41:31;100181.94;;;8.97
72278;BMP280;61204;49.980;8.358;2022-11-15T04:43:57;100173.03;;;8.97
72278;BMP280;61204;49.980;8.358;2022-11-15T04:46:23;100180.78;;;9.01
72278;BMP280;61204;49.980;8.358;2022-11-15T04:48:52;100173.19;;;9.09
72278;BMP280;61204;49.980;8.358;2022-11-15T04:51:19;100175.50;;;9.12
72278;BMP280;61204;49.980;8.358;2022-11-15T04:53:45;100180.97;;;9.12
72278;BMP280;61204;49.980;8.358;2022-11-15T04:56:11;100173.31;;;9.11
72278;BMP280;61204;49.980;8.358;2022-11-15T04:58:37;100169.16;;;9.10
72278;BMP280;61204;49.980;8.358;2022-11-15T05:01:13;100168.16;;;9.15
72278;BMP280;61204;49.980;8.358;2022-11-15T05:03:40;100162.09;;;9.16
72278;BMP280;61204;49.980;8.358;2022-11-15T05:06:26;100155.31;;;9.17
72278;BMP280;61204;49.980;8.358;2022-11-15T05:08:51;100153.31;;;9.18
72278;BMP280;61204;49.980;8.358;2022-11-15T05:11:17;100145.81;;;9.18
72278;BMP280;61204;49.980;8.358;2022-11-15T05:13:43;100151.13;;;9.26
72278;BMP280;61204;49.980;8.358;2022-11-15T05:16:09;100147.25;;;9.29
72278;BMP280;61204;49.980;8.358;2022-11-15T05:18:34;100146.09;;;9.32
72278;BMP280;61204;49.980;8.358;2022-11-15T05:21:05;100138.75;;;9.35
72278;BMP280;61204;49.980;8.358;2022-11-15T05:23:32;100139.03;;;9.39
72278;BMP280;61204;49.980;8.358;2022-11-15T05:25:59;100144.09;;;9.42
72278;BMP280;61204;49.980;8.358;2022-11-15T05:28:26;100136.81;;;9.57
72278;BMP280;61204;49.980;8.358;2022-11-15T05:30:52;100129.66;;;9.51
72278;BMP280;61204;49.980;8.358;2022-11-15T05:33:18;100133.69;;;9.50
72278;BMP280;61204;49.980;8.358;2022-11-15T05:35:50;100130.09;;;9.48
72278;BMP280;61204;49.980;8.358;2022-11-15T05:38:27;100134.84;;;9.47
72278;BMP280;61204;49.980;8.358;2022-11-15T05:40:54;100132.50;;;9.53
72278;BMP280;61204;49.980;8.358;2022-11-15T05:43:20;100130.34;;;9.62
72278;BMP280;61204;49.980;8.358;2022-11-15T05:45:47;100136.63;;;9.74
72278;BMP280;61204;49.980;8.358;2022-11-15T05:48:13;100136.03;;;9.85
72278;BMP280;61204;49.980;8.358;2022-11-15T05:50:42;100129.66;;;9.92
72278;BMP280;61204;49.980;8.358;2022-11-15T05:53:13;100123.03;;;9.95
72278;BMP280;61204;49.980;8.358;2022-11-15T05:55:44;100121.44;;;9.92
72278;BMP280;61204;49.980;8.358;2022-11-15T05:58:10;100132.66;;;9.96
72278;BMP280;61204;49.980;8.358;2022-11-15T06:00:36;100139.13;;;9.91
72278;BMP280;61204;49.980;8.358;2022-11-15T06:03:02;100141.06;;;9.89
72278;BMP280;61204;49.980;8.358;2022-11-15T06:05:27;100145.22;;;9.90
72278;BMP280;61204;49.980;8.358;2022-11-15T06:07:57;100154.28;;;9.92
72278;BMP280;61204;49.980;8.358;2022-11-15T06:10:24;100149.38;;;9.91
72278;BMP280;61204;49.980;8.358;2022-11-15T06:13:04;100143.19;;;9.90
72278;BMP280;61204;49.980;8.358;2022-11-15T06:15:31;100150.69;;;9.90
72278;BMP280;61204;49.980;8.358;2022-11-15T06:18:01;100153.31;;;9.88
72278;BMP280;61204;49.980;8.358;2022-11-15T06:20:28;100158.66;;;9.86
72278;BMP280;61204;49.980;8.358;2022-11-15T06:23:02;100138.59;;;9.83
72278;BMP280;61204;49.980;8.358;2022-11-15T06:25:30;100143.81;;;9.79
72278;BMP280;61204;49.980;8.358;2022-11-15T06:27:58;100144.84;;;9.74
72278;BMP280;61204;49.980;8.358;2022-11-15T06:30:25;100159.69;;;9.71
72278;BMP280;61204;49.980;8.358;2022-11-15T06:32:58;100150.78;;;9.70
72278;BMP280;61204;49.980;8.358;2022-11-15T06:35:29;100155.53;;;9.70
72278;BMP280;61204;49.980;8.358;2022-11-15T06:38:06;100151.22;;;9.67
72278;BMP280;61204;49.980;8.358;2022-11-15T06:40:36;100151.63;;;9.63
72278;BMP280;61204;49.980;8.358;2022-11-15T06:43:05;100153.66;;;9.63
72278;BMP280;61204;49.980;8.358;2022-11-15T06:45:32;100155.09;;;9.64
72278;BMP280;61204;49.980;8.358;2022-11-15T06:47:58;100155.09;;;9.64
72278;BMP280;61204;49.980;8.358;2022-11-15T06:50:24;100147.75;;;9.66
72278;BMP280;61204;49.980;8.358;2022-11-15T06:52:50;100163.03;;;9.69
72278;BMP280;61204;49.980;8.358;2022-11-15T06:55:18;100166.59;;;9.72
72278;BMP280;61204;49.980;8.358;2022-11-15T06:57:51;100156.66;;;9.76
72278;BMP280;61204;49.980;8.358;2022-11-15T07:00:19;100143.53;;;9.85
72278;BMP280;61204;49.980;8.358;2022-11-15T07:02:47;100152.13;;;9.91
72278;BMP280;61204;49.980;8.358;2022-11-15T07:05:14;100147.50;;;9.93
72278;BMP280;61204;49.980;8.358;2022-11-15T07:07:41;100137.72;;;9.90
72278;BMP280;61204;49.980;8.358;2022-11-15T07:10:07;100143.19;;;9.90
72278;BMP280;61204;49.980;8.358;2022-11-15T07:12:33;100154.28;;;9.92
72278;BMP280;61204;49.980;8.358;2022-11-15T07:14:59;100160.06;;;9.96
72278;BMP280;61204;49.980;8.358;2022-11-15T07:17:25;100159.00;;;10.01
72278;BMP280;61204;49.980;8.358;2022-11-15T07:19:50;100148.19;;;10.03
72278;BMP280;61204;49.980;8.358;2022-11-15T07:22:16;100143.56;;;10.06
72278;BMP280;61204;49.980;8.358;2022-11-15T07:24:42;100145.72;;;10.07
72278;BMP280;61204;49.980;8.358;2022-11-15T07:27:07;100149.88;;;10.08
72278;BMP280;61204;49.980;8.358;2022-11-15T07:29:33;100152.19;;;10.12
72278;BMP280;61204;49.980;8.358;2022-11-15T07:31:58;100151.47;;;10.12
72278;BMP280;61204;49.980;8.358;2022-11-15T07:34:24;100156.25;;;10.11
72278;BMP280;61204;49.980;8.358;2022-11-15T07:36:50;100155.34;;;10.18
72278;BMP280;61204;49.980;8.358;2022-11-15T07:39:15;100154.59;;;10.18
72278;BMP280;61204;49.980;8.358;2022-11-15T07:41:41;100162.38;;;10.21
72278;BMP280;61204;49.980;8.358;2022-11-15T07:44:08;100154.44;;;10.25
72278;BMP280;61204;49.980;8.358;2022-11-15T07:46:34;100154.25;;;10.33
72278;BMP280;61204;49.980;8.358;2022-11-15T07:48:59;100147.13;;;10.40
72278;BMP280;61204;49.980;8.358;2022-11-15T07:51:25;100148.41;;;10.48
72278;BMP280;61204;49.980;8.358;2022-11-15T07:53:50;100148.06;;;10.54
72278;BMP280;61204;49.980;8.358;2022-11-15T07:56:16;100146.28;;;10.58
72278;BMP280;61204;49.980;8.358;2022-11-15T07:58:41;100156.78;;;10.62
72278;BMP280;61204;49.980;8.358;2022-11-15T08:01:09;100160.25;;;10.62
72278;BMP280;61204;49.980;8.358;2022-11-15T08:03:36;100150.97;;;10.68
72278;BMP280;61204;49.980;8.358;2022-11-15T08:06:02;100154.25;;;10.76
72278;BMP280;61204;49.980;8.358;2022-11-15T08:08:28;100156.78;;;10.83
72278;BMP280;61204;49.980;8.358;2022-11-15T08:10:54;100160.50;;;10.88
72278;BMP280;61204;49.980;8.358;2022-11-15T08:13:20;100145.47;;;10.89
72278;BMP280;61204;49.980;8.358;2022-11-15T08:15:46;100157.34;;;10.82
72278;BMP280;61204;49.980;8.358;2022-11-15T08:18:15;100158.34;;;10.86
72278;BMP280;61204;49.980;8.358;2022-11-15T08:20:42;100154.59;;;10.82
72278;BMP280;61204;49.980;8.358;2022-11-15T08:23:11;100154.03;;;10.83
72278;BMP280;61204;49.980;8.358;2022-11-15T08:25:38;100151.41;;;10.85
72278;BMP280;61204;49.980;8.358;2022-11-15T08:28:06;100141.41;;;10.90
72278;BMP280;61204;49.980;8.358;2022-11-15T08:30:39;100146.91;;;10.90
72278;BMP280;61204;49.980;8.358;2022-11-15T08:33:12;100152.66;;;10.94
72278;BMP280;61204;49.980;8.358;2022-11-15T08:35:40;100141.91;;;10.86
72278;BMP280;61204;49.980;8.358;2022-11-15T08:38:08;100144.66;;;10.86
72278;BMP280;61204;49.980;8.358;2022-11-15T08:40:35;100137.59;;;10.83
72278;BMP280;61204;49.980;8.358;2022-11-15T08:43:01;100137.44;;;10.81
72278;BMP280;61204;49.980;8.358;2022-11-15T08:45:29;100141.19;;;10.86
72278;BMP280;61204;49.980;8.358;2022-11-15T08:47:55;100142.63;;;10.87
72278;BMP280;61204;49.980;8.358;2022-11-15T08:50:22;100140.00;;;10.89
72278;BMP280;61204;49.980;8.358;2022-11-15T08:52:48;100142.25;;;10.93
72278;BMP280;61204;49.980;8.358;2022-11-15T08:55:14;100139.91;;;10.99
72278;BMP280;61204;49.980;8.358;2022-11-15T08:57:40;100143.16;;;11.07
72278;BMP280;61204;49.980;8.358;2022-11-15T09:00:06;100141.59;;;11.04
72278;BMP280;61204;49.980;8.358;2022-11-15T09:02:32;100144.00;;;11.09
72278;BMP280;61204;49.980;8.358;2022-11-15T09:04:58;100140.81;;;11.13
72278;BMP280;61204;49.980;8.358;2022-11-15T09:07:23;100148.56;;;11.16
72278;BMP280;61204;49.980;8.358;2022-11-15T09:09:49;100139.13;;;11.20
72278;BMP280;61204;49.980;8.358;2022-11-15T09:12:14;100136.16;;;11.27
72278;BMP280;61204;49.980;8.358;2022-11-15T09:14:40;100127.81;;;11.25
72278;BMP280;61204;49.980;8.358;2022-11-15T09:17:09;100125.94;;;11.28
72278;BMP280;61204;49.980;8.358;2022-11-15T09:19:35;100127.34;;;11.29
72278;BMP280;61204;49.980;8.358;2022-11-15T09:22:01;100134.50;;;11.34
72278;BMP280;61204;49.980;8.358;2022-11-15T09:24:31;100138.50;;;11.42
72278;BMP280;61204;49.980;8.358;2022-11-15T09:26:57;100130.97;;;11.43
72278;BMP280;61204;49.980;8.358;2022-11-15T09:29:23;100128.53;;;11.37
72278;BMP280;61204;49.980;8.358;2022-11-15T09:31:48;100133.47;;;11.39
72278;BMP280;61204;49.980;8.358;2022-11-15T09:34:17;100129.03;;;11.45
72278;BMP280;61204;49.980;8.358;2022-11-15T09:36:43;100128.56;;;11.49
72278;BMP280;61204;49.980;8.358;2022-11-15T09:39:08;100126.06;;;11.53
72278;BMP280;61204;49.980;8.358;2022-11-15T09:54:09;100114.97;;;11.63
72278;BMP280;61204;49.980;8.358;2022-11-15T09:56:46;100120.31;;;11.61
72278;BMP280;61204;49.980;8.358;2022-11-15T09:59:43;100117.13;;;11.64
72278;BMP280;61204;49.980;8.358;2022-11-15T10:02:51;100108.53;;;11.58
72278;BMP280;61204;49.980;8.358;2022-11-15T10:05:38;100111.84;;;11.68
72278;BMP280;61204;49.980;8.358;2022-11-15T10:11:32;100106.50;;;11.59
72278;BMP280;61204;49.980;8.358;2022-11-15T10:14:09;100111.13;;;11.68
72278;BMP280;61204;49.980;8.358;2022-11-15T10:20:28;100112.59;;;11.81
72278;BMP280;61204;49.980;8.358;2022-11-15T10:23:04;100101.47;;;11.79
72278;BMP280;61204;49.980;8.358;2022-11-15T10:25:36;100096.22;;;11.71
72278;BMP280;61204;49.980;8.358;2022-11-15T10:30:53;100097.31;;;11.66
72278;BMP280;61204;49.980;8.358;2022-11-15T10:33:33;100103.38;;;11.64
72278;BMP280;61204;49.980;8.358;2022-11-15T10:44:03;100066.00;;;11.59
72278;BMP280;61204;49.980;8.358;2022-11-15T10:46:33;100074.13;;;11.57
72278;BMP280;61204;49.980;8.358;2022-11-15T10:49:18;100068.16;;;11.61
72278;BMP280;61204;49.980;8.358;2022-11-15T10:51:56;100061.63;;;11.66
72278;BMP280;61204;49.980;8.358;2022-11-15T10:57:24;100039.59;;;11.89
72278;BMP280;61204;49.980;8.358;2022-11-15T11:00:00;100036.22;;;12.02
72278;BMP280;61204;49.980;8.358;2022-11-15T11:05:34;100027.81;;;12.24
72278;BMP280;61204;49.980;8.358;2022-11-15T11:11:00;100008.00;;;12.39
72278;BMP280;61204;49.980;8.358;2022-11-15T11:30:18;99992.50;;;13.24
72278;BMP280;61204;49.980;8.358;2022-11-15T11:33:19;99992.69;;;13.28
72278;BMP280;61204;49.980;8.358;2022-11-15T11:48:47;99982.59;;;13.19
72278;BMP280;61204;49.980;8.358;2022-11-15T11:51:37;99980.66;;;13.35
72278;BMP280;61204;49.980;8.358;2022-11-15T12:00:33;99968.31;;;13.36
72278;BMP280;61204;49.980;8.358;2022-11-15T12:06:37;99963.53;;;13.51
72278;BMP280;61204;49.980;8.358;2022-11-15T12:09:46;99956.75;;;13.54
72278;BMP280;61204;49.980;8.358;2022-11-15T12:12:53;99945.47;;;13.34
72278;BMP280;61204;49.980;8.358;2022-11-15T12:15:41;99946.75;;;13.60
72278;BMP280;61204;49.980;8.358;2022-11-15T12:18:16;99944.28;;;13.66
72278;BMP280;61204;49.980;8.358;2022-11-15T12:20:59;99945.81;;;13.69
72278;BMP280;61204;49.980;8.358;2022-11-15T12:23:38;99937.09;;;13.89
72278;BMP280;61204;49.980;8.358;2022-11-15T12:26:19;99935.41;;;13.68
72278;BMP280;61204;49.980;8.358;2022-11-15T12:29:01;99941.75;;;13.70
72278;BMP280;61204;49.980;8.358;2022-11-15T12:31:40;99930.09;;;13.72
72278;BMP280;61204;49.980;8.358;2022-11-15T12:36:47;99917.69;;;13.57
72278;BMP280;61204;49.980;8.358;2022-11-15T12:39:16;99918.47;;;13.60
72278;BMP280;61204;49.980;8.358;2022-11-15T12:59:59;99890.19;;;13.73
72278;BMP280;61204;49.980;8.358;2022-11-15T13:03:16;99881.81;;;13.85
72278;BMP280;61204;49.980;8.358;2022-11-15T13:08:38;99875.84;;;13.90
72278;BMP280;61204;49.980;8.358;2022-11-15T13:11:47;99869.97;;;13.98
72278;BMP280;61204;49.980;8.358;2022-11-15T13:22:43;99862.34;;;13.96
72278;BMP280;61204;49.980;8.358;2022-11-15T13:33:32;99842.69;;;13.88
72278;BMP280;61204;49.980;8.358;2022-11-15T13:36:22;99844.38;;;13.95
72278;BMP280;61204;49.980;8.358;2022-11-15T13:39:02;99829.28;;;14.12
72278;BMP280;61204;49.980;8.358;2022-11-15T13:41:33;99824.31;;;14.09
72278;BMP280;61204;49.980;8.358;2022-11-15T13:44:03;99818.16;;;13.94
72278;BMP280;61204;49.980;8.358;2022-11-15T13:46:43;99819.69;;;13.97
72278;BMP280;61204;49.980;8.358;2022-11-15T13:49:09;99810.94;;;13.87
72278;BMP280;61204;49.980;8.358;2022-11-15T13:51:52;99814.06;;;13.95
72278;BMP280;61204;49.980;8.358;2022-11-15T13:54:29;99806.84;;;14.04
72278;BMP280;61204;49.980;8.358;2022-11-15T13:57:24;99809.28;;;13.96
72278;BMP280;61204;49.980;8.358;2022-11-15T14:00:06;99793.88;;;13.91
72278;BMP280;61204;49.980;8.358;2022-11-15T14:02:49;99788.72;;;13.83
72278;BMP280;61204;49.980;8.358;2022-11-15T14:05:20;99776.97;;;13.67
72278;BMP280;61204;49.980;8.358;2022-11-15T14:08:02;99775.38;;;13.62
72278;BMP280;61204;49.980;8.358;2022-11-15T14:10:47;99773.34;;;13.62
72278;BMP280;61204;49.980;8.358;2022-11-15T14:13:30;99769.69;;;13.58
72278;BMP280;61204;49.980;8.358;2022-11-15T14:16:18;99775.28;;;13.60
72278;BMP280;61204;49.980;8.358;2022-11-15T14:18:51;99770.59;;;13.62
72278;BMP280;61204;49.980;8.358;2022-11-15T14:21:19;99772.72;;;13.64
72278;BMP280;61204;49.980;8.358;2022-11-15T14:23:46;99768.44;;;13.61
72278;BMP280;61204;49.980;8.358;2022-11-15T14:26:29;99759.19;;;13.54
72278;BMP280;61204;49.980;8.358;2022-11-15T14:32:27;99756.78;;;13.47
72278;BMP280;61204;49.980;8.358;2022-11-15T14:35:14;99757.41;;;13.45
72278;BMP280;61204;49.980;8.358;2022-11-15T14:37:43;99741.41;;;13.41
72278;BMP280;61204;49.980;8.358;2022-11-15T14:40:13;99736.94;;;13.34
72278;BMP280;61204;49.980;8.358;2022-11-15T14:42:46;99723.13;;;13.32
72278;BMP280;61204;49.980;8.358;2022-11-15T14:45:21;99723.81;;;13.33
72278;BMP280;61204;49.980;8.358;2022-11-15T14:47:47;99727.28;;;13.33
72278;BMP280;61204;49.980;8.358;2022-11-15T14:50:19;99721.06;;;13.33
72278;BMP280;61204;49.980;8.358;2022-11-15T14:52:47;99716.28;;;13.33
72278;BMP280;61204;49.980;8.358;2022-11-15T14:55:18;99715.44;;;13.31
72278;BMP280;61204;49.980;8.358;2022-11-15T14:57:49;99712.44;;;13.25
72278;BMP280;61204;49.980;8.358;2022-11-15T15:00:17;99707.53;;;13.23
72278;BMP280;61204;49.980;8.358;2022-11-15T15:02:46;99704.06;;;13.23
72278;BMP280;61204;49.980;8.358;2022-11-15T15:05:20;99696.88;;;13.15
72278;BMP280;61204;49.980;8.358;2022-11-15T15:08:01;99688.53;;;13.13
72278;BMP280;61204;49.980;8.358;2022-11-15T15:10:31;99683.56;;;13.10
72278;BMP280;61204;49.980;8.358;2022-11-15T15:13:02;99678.56;;;13.06
72278;BMP280;61204;49.980;8.358;2022-11-15T15:15:33;99677.75;;;13.04
72278;BMP280;61204;49.980;8.358;2022-11-15T15:18:03;99663.81;;;13.00
72278;BMP280;61204;49.980;8.358;2022-11-15T15:20:31;99661.50;;;12.94
72278;BMP280;61204;49.980;8.358;2022-11-15T15:22:57;99668.94;;;12.92
72278;BMP280;61204;49.980;8.358;2022-11-15T15:25:28;99668.75;;;12.88
72278;BMP280;61204;49.980;8.358;2022-11-15T15:27:58;99667.25;;;12.84
72278;BMP280;61204;49.980;8.358;2022-11-15T15:30:27;99664.19;;;12.78
72278;BMP280;61204;49.980;8.358;2022-11-15T15:32:55;99655.84;;;12.76
72278;BMP280;61204;49.980;8.358;2022-11-15T15:35:21;99658.44;;;12.72
72278;BMP280;61204;49.980;8.358;2022-11-15T15:37:55;99655.56;;;12.70
72278;BMP280;61204;49.980;8.358;2022-11-15T15:40:22;99654.06;;;12.67
72278;BMP280;61204;49.980;8.358;2022-11-15T15:42:49;99658.22;;;12.68
72278;BMP280;61204;49.980;8.358;2022-11-15T15:45:17;99648.47;;;12.65
72278;BMP280;61204;49.980;8.358;2022-11-15T15:47:44;99648.34;;;12.63
72278;BMP280;61204;49.980;8.358;2022-11-15T15:52:51;99648.25;;;12.61
72278;BMP280;61204;49.980;8.358;2022-11-15T15:55:20;99650.22;;;12.58
72278;BMP280;61204;49.980;8.358;2022-11-15T15:57:47;99653.47;;;12.55
72278;BMP280;61204;49.980;8.358;2022-11-15T16:00:14;99647.78;;;12.51
72278;BMP280;61204;49.980;8.358;2022-11-15T16:02:42;99646.19;;;12.46
72278;BMP280;61204;49.980;8.358;2022-11-15T16:05:09;99637.00;;;12.41
72278;BMP280;61204;49.980;8.358;2022-11-15T16:07:37;99636.69;;;12.49
72278;BMP280;61204;49.980;8.358;2022-11-15T16:10:21;99628.72;;;12.55
72278;BMP280;61204;49.980;8.358;2022-11-15T16:12:50;99629.34;;;12.53
72278;BMP280;61204;49.980;8.358;2022-11-15T16:15:17;99629.44;;;12.55
72278;BMP280;61204;49.980;8.358;2022-11-15T16:17:48;99630.16;;;12.56
72278;BMP280;61204;49.980;8.358;2022-11-15T16:20:36;99630.88;;;12.56
72278;BMP280;61204;49.980;8.358;2022-11-15T16:23:08;99634.03;;;12.51
72278;BMP280;61204;49.980;8.358;2022-11-15T16:30:48;99624.31;;;12.34
72278;BMP280;61204;49.980;8.358;2022-11-15T16:33:23;99618.50;;;12.28
72278;BMP280;61204;49.980;8.358;2022-11-15T16:35:49;99623.00;;;12.21
72278;BMP280;61204;49.980;8.358;2022-11-15T16:38:15;99614.56;;;12.17
72278;BMP280;61204;49.980;8.358;2022-11-15T16:40:43;99613.63;;;12.13
72278;BMP280;61204;49.980;8.358;2022-11-15T16:43:09;99612.63;;;12.06
72278;BMP280;61204;49.980;8.358;2022-11-15T16:45:35;99601.44;;;12.02
72278;BMP280;61204;49.980;8.358;2022-11-15T16:48:01;99601.22;;;11.98
72278;BMP280;61204;49.980;8.358;2022-11-15T16:50:30;99597.06;;;11.97
72278;BMP280;61204;49.980;8.358;2022-11-15T16:53:05;99597.16;;;11.99
72278;BMP280;61204;49.980;8.358;2022-11-15T16:55:31;99599.31;;;12.00
72278;BMP280;61204;49.980;8.358;2022-11-15T16:57:56;99598.59;;;12.00
72278;BMP280;61204;49.980;8.358;2022-11-15T17:00:23;99595.03;;;11.97
72278;BMP280;61204;49.980;8.358;2022-11-15T17:02:50;99590.19;;;11.96
72278;BMP280;61204;49.980;8.358;2022-11-15T17:05:19;99579.06;;;11.94